Ely, NV

10:21 PST le 29 janvier 2015 (GMT -0800)
Ely | Change Station
CLOSE
Current Station
Aéroport
Location: Ely,
Altitude: 6260 ft
Stations météo à proximité

Alt. 6260 ft 39.30 °N, 114.85 °W | Updated 28 minutes ago

Partiellement nuageux
Partiellement nuageux
36 ° F
Paraît 36 ° F
N
0
Vent Variable Vent de Nord

Aujourd'hui
Haut(e) -- | Bas -- ° F
--% Risque de précip.
Hier
Haut(e) -- | Bas -- ° F
Precip. -- pouce
6:49 AM 4:56 PM
Lune gibbeuse croissante, 76% visible
Pression 30.34 pouce
Visibilité 10.0 Miles terrestres
Nuages Ciel dégagé
Point de rosée 30 ° F
Humidité 81%
Précipitations 0.00 pouce
Profondeur de la couche neigeuse Non disponible.
UV 3 sur 12
Pollen .30 sur 12
Qualité de l'air Non disponible.
Flu Activity Non disponible.
METAR KELY 291753Z AUTO 00000KT 10SM CLR 02/M01 A3034

More Conditions Fewer Conditions

Pression 30.34 pouce
Visibilité 10.0 Miles terrestres
Nuages Ciel dégagé
Point de rosée 30 ° F
Humidité 81%
Précipitations 0.00 pouce
Profondeur de la couche neigeuse Non disponible.
UV 3 sur 12
Pollen .30 sur 12
Qualité de l'air Non disponible.
Flu Activity Non disponible.
METAR KELY 291753Z AUTO 00000KT 10SM CLR 02/M01 A3034

More Conditions Fewer Conditions

10-Day Weather Forecast

Almanac

Astronomie

Jan. 29, 2015 Lever Coucher
Temps réel
Crépuscule civil
Crépuscule nautique
Crépuscule astronomique
Lune
Durée de lumière visible
Longueur du jour
Tomorrow will be .
, % of the Moon is Illuminated

Extrêmes aujourd'hui

State Highs State Lows

Community

WunderPhotos

Upload Photos

1,791,514 Photos téléchargées !

WunderBlogs® & News

Nearby

Qualité de l'air

  Qualité de l'air Indice de la qualité de l'air Polluant
Not available.

Épaisseur de neige

Station Depth Altitude

Activité sismique

Ville Distance Mag. Time & Date
Minimum magnitude displayed is 2.5.

Températures des eaux côtières

Lieu Température

Stations météo à proximité